Date,TemperatureHighF,TemperatureAvgF,TemperatureLowF,DewpointHighF,DewpointAvgF,DewpointLowF,HumidityHigh,HumidityAvg,HumidityLow,PressureMaxIn,PressureMinIn,WindSpeedMaxMPH,WindSpeedAvgMPH,GustSpeedMaxMPH,PrecipitationSumIn
2013-1-1,58.0,42.1,35.0,26.0,22.6,20.0,61,47,28,0.00,40.00,6,2,13,0.00
2013-1-2,60.0,45.2,35.0,21.0,18.1,15.0,51,35,19,0.00,40.00,6,2,13,0.00
2013-1-3,65.0,47.9,41.0,21.0,15.6,11.0,37,28,14,0.00,40.00,8,3,14,0.00
2013-1-4,62.0,46.4,39.0,18.0,12.2,8.0,32,26,12,0.00,40.00,7,3,15,0.00
2013-1-5,65.0,48.0,41.0,18.0,13.8,9.0,38,26,14,0.00,40.00,7,3,13,0.00
2013-1-6,52.0,41.8,36.0,38.0,29.9,16.0,98,66,35,0.00,40.00,5,1,11,0.09
2013-1-7,65.0,46.5,33.0,37.0,24.6,11.0,99,50,17,0.00,40.00,12,4,32,0.09
2013-1-8,75.0,55.4,43.0,34.0,25.8,15.0,41,32,20,0.00,40.00,5,2,12,0.00
2013-1-9,71.0,56.8,44.0,35.0,30.2,23.0,62,37,23,0.00,40.00,4,2,13,0.00
2013-1-10,49.0,40.7,34.0,45.0,33.1,17.0,99,77,45,0.00,40.00,12,4,28,0.19
2013-1-11,48.0,37.6,30.0,23.0,18.7,14.0,69,47,34,0.00,40.00,12,6,25,0.01
2013-1-12,50.0,36.8,29.0,21.0,15.2,10.0,69,44,22,0.00,40.00,6,2,15,0.02
2013-1-13,49.0,37.2,31.0,15.0,11.3,8.0,47,35,22,0.00,40.00,6,4,13,0.01
2013-1-14,50.0,34.9,26.0,11.0,3.6,-3.0,47,28,12,0.00,40.00,15,3,33,0.00
2013-1-15,58.0,41.5,30.0,21.0,12.9,2.0,45,31,21,0.00,40.00,5,2,12,0.00
2013-1-16,66.0,48.8,40.0,27.0,23.0,20.0,47,37,20,0.00,40.00,4,2,14,0.00
2013-1-17,71.0,53.0,45.0,22.0,18.0,11.0,35,26,14,0.00,40.00,6,2,14,0.00
2013-1-18,73.0,54.6,46.0,23.0,18.5,13.0,32,25,13,0.00,40.00,6,3,13,0.00
2013-1-19,73.0,55.1,48.0,21.0,15.3,9.0,26,21,11,0.00,40.00,6,4,13,0.00
2013-1-20,74.0,56.6,50.0,18.0,12.5,7.0,26,18,9,0.00,40.00,6,3,15,0.00
2013-1-21,75.0,57.8,51.0,18.0,12.0,7.0,26,17,7,0.00,40.00,6,4,14,0.00
2013-1-22,77.0,60.3,52.0,19.0,10.9,4.0,22,15,6,0.00,40.00,8,4,18,0.00
2013-1-23,73.0,62.7,55.0,44.0,31.2,17.0,44,31,21,0.00,40.00,5,2,14,0.00
2013-1-24,62.0,53.5,46.0,57.0,48.4,34.0,99,84,49,0.00,40.00,5,1,9,0.39
2013-1-25,58.0,54.0,51.0,58.0,52.9,48.0,100,96,76,0.00,40.00,4,1,12,0.40
2013-1-26,61.0,53.6,50.0,56.0,52.9,50.0,100,97,74,0.00,40.00,5,2,12,0.26
2013-1-27,53.0,48.1,37.0,52.0,45.3,35.0,100,91,67,0.00,40.00,12,4,21,0.11
2013-1-28,50.0,40.1,32.0,35.0,27.5,20.0,98,64,34,0.00,40.00,14,6,30,0.13
2013-1-29,54.0,41.8,32.0,37.0,30.3,20.0,93,65,42,0.00,40.00,5,2,12,0.01
2013-1-30,69.0,51.4,39.0,38.0,33.4,28.0,83,52,28,0.00,40.00,6,2,13,0.00
2013-1-31,73.0,59.0,50.0,37.0,33.3,29.0,48,39,25,0.00,40.00,6,4,15,0.00
2013-2-1,75.0,60.1,52.0,36.0,31.1,25.0,43,34,22,0.00,40.00,7,3,13,0.00
2013-2-2,73.0,61.7,54.0,39.0,33.3,28.0,43,35,24,0.00,40.00,6,2,12,0.00
2013-2-3,70.0,57.6,49.0,47.0,42.5,34.0,84,59,41,0.00,40.00,5,2,12,0.00
2013-2-4,72.0,58.4,50.0,42.0,36.4,31.0,66,45,29,0.00,40.00,7,4,14,0.00
2013-2-5,68.0,53.1,44.0,48.0,39.6,23.0,99,63,36,0.00,40.00,6,2,14,0.00
2013-2-6,59.0,47.8,41.0,46.0,41.9,37.0,99,81,57,0.00,40.00,5,2,11,0.00
2013-2-7,63.0,49.6,38.0,45.0,38.5,22.0,92,69,35,0.00,40.00,5,2,12,0.00
2013-2-8,44.0,36.1,32.0,39.0,33.6,29.0,98,91,73,0.00,40.00,9,2,15,0.22
2013-2-9,49.0,37.2,30.0,37.0,30.3,25.0,97,77,52,0.00,40.00,5,1,10,0.78
2013-2-10,48.0,40.1,32.0,34.0,30.4,23.0,83,69,47,0.00,40.00,5,1,11,0.01
2013-2-11,56.0,41.1,32.0,30.0,18.1,1.0,89,46,15,0.00,40.00,11,4,29,0.00
2013-2-12,59.0,44.5,35.0,24.0,16.9,11.0,49,34,20,0.00,40.00,7,4,16,0.00
2013-2-13,69.0,52.3,41.0,30.0,22.2,15.0,47,32,18,0.00,40.00,6,3,16,0.00
2013-2-14,73.0,55.8,44.0,32.0,24.3,19.0,47,31,17,0.00,40.00,13,4,27,0.00
2013-2-15,74.0,57.0,48.0,26.0,21.4,11.0,32,26,15,0.00,40.00,7,5,18,0.00
2013-2-16,76.0,58.9,48.0,21.0,12.0,0.0,23,16,8,0.00,40.00,7,3,17,0.00
2013-2-17,67.0,55.0,43.0,34.0,21.2,12.0,58,29,17,0.00,40.00,8,4,15,0.00
2013-2-18,64.0,49.5,39.0,43.0,30.9,19.0,82,51,28,0.00,40.00,5,2,12,0.00
2013-2-19,46.0,40.9,33.0,40.0,36.0,30.0,98,83,65,0.00,40.00,5,2,13,0.67
2013-2-20,48.0,37.9,32.0,36.0,32.3,29.0,98,82,53,0.00,40.00,18,5,29,0.71
2013-2-21,55.0,40.8,34.0,35.0,28.1,15.0,88,62,35,0.00,40.00,6,2,11,0.02
2013-2-22,61.0,46.4,34.0,31.0,24.0,17.0,57,43,26,0.00,40.00,6,3,14,0.00
2013-2-23,61.0,48.8,37.0,37.0,27.7,21.0,81,47,28,0.00,40.00,8,3,18,0.00
2013-2-24,62.0,47.8,38.0,30.0,8.0,-15.0,65,23,7,0.00,40.00,15,5,40,0.00
2013-2-25,66.0,48.9,39.0,22.0,14.2,5.0,46,26,15,0.00,40.00,7,4,14,0.00
2013-2-26,69.0,48.9,35.0,22.0,18.5,12.0,54,32,13,0.00,40.00,10,3,19,0.00
2013-2-27,69.0,50.8,42.0,19.0,13.4,9.0,33,23,14,0.00,40.00,6,3,16,0.00
2013-2-28,74.0,55.7,43.0,20.0,14.1,9.0,27,20,9,0.00,40.00,6,3,16,0.00
2013-3-1,79.0,62.9,51.0,27.0,22.4,18.0,29,22,12,0.00,40.00,7,5,17,0.00
2013-3-2,81.0,65.4,56.0,33.0,21.8,14.0,27,19,11,0.00,40.00,9,5,16,0.00
2013-3-3,74.0,58.8,46.0,39.0,27.0,15.0,69,32,19,0.00,40.00,8,3,18,0.00
2013-3-4,66.0,51.5,43.0,48.0,42.1,36.0,94,72,49,0.00,40.00,5,1,11,0.00
2013-3-5,70.0,55.1,44.0,48.0,42.5,29.0,99,66,40,0.00,40.00,7,3,15,0.00
2013-3-6,60.0,47.5,41.0,47.0,42.2,39.0,99,84,52,0.00,40.00,9,2,14,0.00
2013-3-7,50.0,44.0,38.0,44.0,41.0,36.0,99,89,73,0.00,40.00,6,2,15,0.20
2013-3-8,46.0,39.8,36.0,39.0,35.8,34.0,94,86,63,0.00,40.00,9,2,14,0.98
2013-3-9,55.0,45.1,38.0,43.0,39.3,36.0,98,81,55,0.00,40.00,4,0,10,0.38
2013-3-10,73.0,54.3,38.0,37.0,29.7,24.0,89,45,16,0.00,40.00,7,1,16,0.01
2013-3-11,77.0,60.9,49.0,32.0,23.6,16.0,44,25,13,0.00,40.00,8,4,15,0.00
2013-3-12,83.0,65.7,51.0,36.0,27.9,20.0,44,26,13,0.00,40.00,8,4,15,0.00
2013-3-13,88.0,70.8,60.0,39.0,28.9,21.0,31,22,11,0.00,40.00,8,5,16,0.00
2013-3-14,89.0,72.4,63.0,45.0,32.4,23.0,39,24,12,0.00,40.00,9,5,16,0.00
2013-3-15,86.0,70.5,61.0,41.0,33.2,28.0,38,26,17,0.00,40.00,9,4,15,0.00
2013-3-16,76.0,61.5,48.0,47.0,36.6,23.0,81,43,22,0.00,40.00,7,2,12,0.00
2013-3-17,73.0,56.2,42.0,50.0,44.7,38.0,99,69,35,0.00,40.00,6,2,12,0.00
2013-3-18,66.0,52.5,39.0,50.0,45.9,39.0,99,80,54,0.00,40.00,6,2,12,0.00
2013-3-19,72.0,54.0,43.0,52.0,46.7,39.0,99,79,50,0.00,40.00,5,1,12,0.00
2013-3-20,70.0,58.2,48.0,48.0,43.4,36.0,93,60,36,0.00,40.00,6,2,11,0.00
2013-3-21,71.0,56.5,46.0,48.0,45.9,42.0,99,72,38,0.00,40.00,9,3,15,0.00
2013-3-22,73.0,55.5,44.0,48.0,43.3,39.0,96,69,33,0.00,40.00,10,2,19,0.00
2013-3-23,78.0,57.9,41.0,46.0,32.7,24.0,90,45,14,0.00,40.00,7,3,14,0.00
2013-3-24,79.0,60.7,49.0,43.0,32.4,26.0,77,38,14,0.00,40.00,7,3,16,0.00
2013-3-25,80.0,64.2,52.0,43.0,32.0,20.0,64,32,16,0.00,40.00,6,3,14,0.00
2013-3-26,74.0,60.8,48.0,44.0,36.1,29.0,60,42,23,0.00,40.00,7,3,15,0.00
2013-3-27,74.0,56.6,44.0,45.0,40.2,36.0,85,58,29,0.00,40.00,6,2,12,0.00
2013-3-28,76.0,67.6,54.0,47.0,41.4,33.0,71,41,21,0.00,40.00,7,3,14,0.00
2013-3-29,81.0,63.5,52.0,51.0,39.8,32.0,88,45,23,0.00,40.00,7,3,14,0.00
2013-3-30,76.0,62.3,51.0,51.0,43.4,-99.9,97,57,27,0.00,40.00,7,3,15,0.00
2013-3-31,67.0,55.0,46.0,50.0,45.0,37.0,95,71,43,0.00,40.00,9,3,18,0.00
2013-4-1,64.0,53.1,43.0,50.0,43.6,34.0,99,73,42,0.00,40.00,9,5,17,0.00
2013-4-2,72.0,57.3,44.0,50.0,45.6,34.0,99,69,40,0.00,40.00,8,3,15,0.00
2013-4-3,84.0,63.9,48.0,45.0,40.1,34.0,82,47,17,0.00,40.00,12,3,20,0.00
2013-4-4,77.0,62.3,49.0,48.0,41.1,30.0,83,51,18,0.00,40.00,7,2,19,0.00
2013-4-5,70.0,54.5,43.0,53.0,46.3,39.0,99,76,47,0.00,40.00,7,2,14,0.00
2013-4-6,71.0,57.3,48.0,52.0,49.9,46.0,99,80,46,0.00,40.00,8,3,17,0.00
2013-4-7,71.0,56.3,46.0,52.0,47.9,43.0,99,76,46,0.00,40.00,7,2,14,0.00
2013-4-8,55.0,48.7,44.0,51.0,44.9,34.0,99,87,61,0.00,40.00,7,2,18,0.30
2013-4-9,72.0,53.9,39.0,36.0,26.1,11.0,77,42,10,0.00,40.00,13,6,28,0.06
2013-4-10,83.0,62.5,46.0,28.0,18.3,1.0,50,22,6,0.00,40.00,13,4,28,0.00
2013-4-11,80.0,62.5,50.0,45.0,28.8,18.0,78,32,14,0.00,40.00,6,2,15,0.00
2013-4-12,78.0,59.6,43.0,52.0,46.0,41.0,99,67,31,0.00,40.00,8,2,15,0.00
2013-4-13,75.0,60.2,48.0,53.0,45.7,36.0,99,61,38,0.00,40.00,6,2,14,0.00
2013-4-14,55.0,50.3,46.0,51.0,47.5,45.0,99,90,68,0.00,40.00,8,2,12,0.00
2013-4-15,63.0,51.2,45.0,50.0,45.5,43.0,100,83,49,0.00,40.00,7,4,12,0.00
2013-4-16,60.0,48.9,41.0,45.0,36.8,20.0,93,66,39,0.00,40.00,11,4,25,0.00
2013-4-17,71.0,53.5,40.0,25.0,14.0,-1.0,49,26,6,0.00,40.00,15,5,25,0.00
2013-4-18,75.0,57.5,44.0,13.0,9.1,4.0,27,16,7,0.00,40.00,5,2,14,0.00
2013-4-19,83.0,63.8,51.0,18.0,10.1,3.0,20,13,6,0.00,40.00,9,5,16,0.00
2013-4-20,91.0,68.8,50.0,41.0,25.5,15.0,47,22,8,0.00,40.00,10,3,19,0.00
2013-4-21,89.0,71.3,58.0,38.0,29.3,22.0,47,23,10,0.00,40.00,8,4,23,0.00
2013-4-22,79.0,64.7,47.0,46.0,36.6,25.0,93,38,21,0.00,40.00,8,3,16,0.00
2013-4-23,83.0,62.1,46.0,49.0,44.4,33.0,99,62,18,0.00,40.00,7,3,16,0.00
2013-4-24,72.0,56.9,46.0,53.0,49.4,45.0,100,79,44,0.00,40.00,8,4,23,0.00
2013-4-25,69.0,53.9,47.0,50.0,46.3,42.0,99,78,47,0.00,40.00,6,4,14,0.00
2013-4-26,81.0,62.4,45.0,47.0,42.8,39.0,87,54,23,0.00,40.00,7,2,16,0.00
2013-4-27,89.0,70.2,52.0,48.0,37.4,23.0,71,34,17,0.00,40.00,11,3,20,0.00
2013-4-28,91.0,72.2,55.0,50.0,39.2,28.0,60,34,11,0.00,40.00,8,2,17,0.00
2013-4-29,89.0,71.1,54.0,50.0,41.9,23.0,72,38,18,0.00,40.00,7,2,16,0.00
2013-4-30,79.0,62.9,45.0,51.0,48.8,44.0,99,64,33,0.00,40.00,8,3,16,0.00
2013-5-1,90.0,65.6,51.0,51.0,38.0,-6.0,97,51,4,0.00,40.00,6,2,20,0.00
2013-5-2,87.0,68.1,55.0,19.0,5.7,-4.0,17,10,3,0.00,40.00,9,4,18,0.00
2013-5-3,92.0,73.3,61.0,18.0,4.9,-5.0,15,7,3,0.00,40.00,9,5,20,0.00
2013-5-4,84.0,67.6,54.0,52.0,23.5,10.0,92,25,7,0.00,40.00,6,2,18,0.00
2013-5-5,67.0,56.1,50.0,52.0,45.0,41.0,94,69,40,0.00,40.00,5,2,12,0.00
2013-5-6,62.0,52.8,49.0,53.0,49.4,43.0,99,89,61,0.00,40.00,4,1,12,0.26
2013-5-7,67.0,53.5,46.0,49.0,43.6,39.0,90,70,39,0.00,40.00,7,3,17,0.13
2013-5-8,65.0,56.1,48.0,50.0,46.1,44.0,99,71,48,0.00,40.00,8,4,14,0.01
2013-5-9,68.0,56.0,44.0,55.0,47.5,41.0,99,76,46,0.00,40.00,9,2,15,0.24
2013-5-10,83.0,66.4,47.0,57.0,48.1,-99.9,100,62,27,0.00,40.00,10,3,23,0.23
2013-5-11,93.0,76.2,59.0,52.0,39.6,-99.9,67,33,10,0.00,40.00,11,4,20,0.00
2013-5-12,97.0,81.7,70.0,44.0,33.2,23.0,36,19,7,0.00,40.00,10,5,21,0.00
2013-5-13,98.0,86.4,71.0,42.0,33.9,25.0,25,16,9,0.00,40.00,11,5,20,0.00
2013-5-14,91.0,76.1,56.0,45.0,35.1,23.0,58,25,10,0.00,40.00,9,4,22,0.00
2013-5-15,84.0,64.8,51.0,52.0,44.1,38.0,88,51,25,0.00,40.00,7,3,16,0.00
2013-5-16,78.0,58.1,48.0,54.0,33.8,-99.9,99,70,36,0.00,40.00,8,3,17,0.00
2013-5-17,74.0,60.1,53.0,56.0,49.8,-99.9,100,80,38,0.00,40.00,9,4,17,0.00
2013-5-18,76.0,61.8,51.0,55.0,51.4,47.0,99,73,37,0.00,40.00,9,5,18,0.00
2013-5-19,84.0,65.9,51.0,54.0,48.6,43.0,91,58,26,0.00,40.00,11,3,18,0.00
2013-5-20,94.0,71.3,54.0,53.0,42.1,21.0,83,45,7,0.00,40.00,10,3,20,0.00
2013-5-21,89.0,74.3,58.0,50.0,40.9,23.0,73,33,17,0.00,40.00,8,4,17,0.00
2013-5-22,82.0,64.8,50.0,52.0,46.8,33.0,91,56,24,0.00,40.00,9,3,20,0.00
2013-5-23,77.0,61.5,51.0,50.0,46.4,43.0,87,61,34,0.00,40.00,9,3,18,0.00
2013-5-24,80.0,61.8,49.0,48.0,44.0,39.0,78,55,28,0.00,40.00,9,3,18,0.00
2013-5-25,77.0,59.7,42.0,51.0,43.2,33.0,99,61,21,0.00,40.00,8,3,15,0.00
2013-5-26,76.0,59.8,46.0,49.0,44.6,37.0,92,61,31,0.00,40.00,9,3,17,0.00
2013-5-27,80.0,62.0,48.0,53.0,49.0,41.0,99,67,32,0.00,40.00,12,3,21,0.00
2013-5-28,75.0,59.9,53.0,57.0,53.3,51.0,100,82,47,0.00,40.00,9,3,16,0.00
2013-5-29,87.0,67.7,51.0,54.0,49.8,45.0,99,58,26,0.00,40.00,9,3,19,0.00
2013-5-30,90.0,70.4,53.0,53.0,50.5,46.0,83,54,26,0.00,40.00,8,3,18,0.00
2013-5-31,91.0,72.0,51.0,55.0,51.5,46.0,99,55,25,0.00,40.00,8,3,17,0.00
2013-6-1,104.0,80.8,61.0,58.0,43.5,26.0,84,34,7,0.00,40.00,12,3,20,0.00
2013-6-2,89.0,73.6,55.0,57.0,52.6,38.0,97,52,18,0.00,40.00,8,4,19,0.00
2013-6-3,87.0,65.9,48.0,56.0,51.3,46.0,100,67,27,0.00,40.00,9,3,16,0.00
2013-6-4,84.0,65.6,52.0,56.0,51.9,46.0,99,67,29,0.00,40.00,8,4,16,0.00
2013-6-5,86.0,65.6,47.0,55.0,50.0,44.0,99,64,25,0.00,40.00,9,3,14,0.00
2013-6-6,88.0,70.3,54.0,54.0,47.1,36.0,84,47,25,0.00,40.00,8,3,15,0.00
2013-6-7,90.0,70.5,55.0,55.0,49.4,38.0,97,52,27,0.00,40.00,8,2,16,0.00
2013-6-8,92.0,73.0,55.0,55.0,51.6,45.0,90,51,27,0.00,40.00,10,3,19,0.00
2013-6-9,93.0,71.1,54.0,57.0,48.0,29.0,97,50,11,0.00,40.00,6,2,15,0.00
2013-6-10,87.0,70.3,47.0,54.0,46.5,34.0,99,48,17,0.00,40.00,8,3,16,0.00
2013-6-11,95.0,73.7,55.0,55.0,43.0,29.0,77,41,11,0.00,40.00,8,3,19,0.00
2013-6-12,86.0,71.7,57.0,57.0,52.3,38.0,90,53,32,0.00,40.00,8,3,17,0.00
2013-6-13,90.0,70.3,51.0,56.0,49.2,43.0,99,53,24,0.00,40.00,8,3,17,0.00
2013-6-14,91.0,70.3,53.0,53.0,43.7,28.0,81,42,21,0.00,40.00,8,3,16,0.00
2013-6-15,87.0,68.1,50.0,53.0,46.3,41.0,99,51,22,0.00,40.00,8,3,17,0.00
2013-6-16,88.0,68.7,50.0,52.0,43.8,35.0,85,46,19,0.00,40.00,8,3,18,0.00
2013-6-17,90.0,72.4,54.0,51.0,44.5,38.0,69,40,18,0.00,40.00,9,3,19,0.00
2013-6-18,91.0,72.3,59.0,50.0,45.6,42.0,68,42,18,0.00,40.00,10,3,19,0.00
2013-6-19,86.0,67.9,51.0,54.0,47.5,39.0,79,51,27,0.00,40.00,9,3,20,0.00
2013-6-20,87.0,67.2,53.0,48.0,43.9,34.0,66,46,15,0.00,40.00,6,2,15,0.00
2013-6-22,88.0,77.2,61.0,51.0,47.4,43.0,62,37,23,0.00,40.00,8,4,17,0.00
2013-6-23,81.0,67.0,53.0,55.0,49.8,45.0,93,57,28,0.00,40.00,9,3,16,0.00
2013-6-24,79.0,63.2,52.0,57.0,53.7,51.0,99,75,40,0.00,40.00,6,2,14,0.00
2013-6-25,86.0,67.4,52.0,57.0,54.5,52.0,99,68,33,0.00,40.00,8,2,16,0.00
2013-6-26,97.0,78.7,62.0,56.0,53.6,51.0,72,46,23,0.00,40.00,8,3,21,0.00
2013-6-27,101.0,82.6,66.0,57.0,51.9,47.0,67,38,18,0.00,40.00,8,3,21,0.00
2013-6-28,102.0,85.3,69.0,55.0,47.4,34.0,53,29,16,0.00,40.00,10,4,20,0.00
2013-6-29,106.0,86.7,71.0,58.0,43.6,34.0,46,25,11,0.00,40.00,7,2,18,0.00
2013-6-30,109.0,91.9,74.0,60.0,46.6,37.0,57,25,9,0.00,40.00,11,4,22,0.00
2013-7-1,100.0,86.4,74.0,58.0,50.7,46.0,57,31,18,0.00,40.00,7,3,17,0.00
2013-7-2,99.0,82.4,69.0,56.0,50.8,39.0,62,36,19,0.00,40.00,9,3,19,0.00
2013-7-3,98.0,82.2,70.0,54.0,47.0,39.0,53,30,19,0.00,40.00,7,2,14,0.00
2013-7-4,100.0,81.8,66.0,53.0,48.4,36.0,54,34,19,0.00,40.00,8,3,15,0.00
2013-7-5,95.0,78.9,64.0,58.0,49.5,39.0,75,38,20,0.00,40.00,7,3,18,0.00
2013-7-6,95.0,73.3,60.0,59.0,54.6,46.0,90,56,21,0.00,40.00,8,2,17,0.00
2013-7-7,99.0,80.1,60.0,57.0,49.8,40.0,90,40,13,0.00,40.00,7,2,16,0.00
2013-7-8,102.0,81.1,65.0,53.0,44.9,30.0,58,33,14,0.00,40.00,10,2,20,0.00
2013-7-9,102.0,87.8,74.0,54.0,42.2,27.0,50,23,14,0.00,40.00,9,4,21,0.00
2013-7-10,91.0,79.2,68.0,60.0,52.9,-99.9,63,42,28,0.00,40.00,8,3,18,0.00
2013-7-11,79.0,72.4,65.0,63.0,57.9,54.0,88,61,43,0.00,40.00,6,1,11,0.00
2013-7-12,93.0,76.1,62.0,64.0,58.5,52.0,99,61,27,0.00,40.00,9,3,20,0.00
2013-7-13,96.0,78.4,61.0,58.0,51.6,46.0,84,45,18,0.00,40.00,8,3,16,0.00
2013-7-14,97.0,80.7,68.0,56.0,52.0,48.0,65,40,19,0.00,40.00,7,3,18,0.00
2013-7-15,95.0,78.9,65.0,54.0,50.1,42.0,58,40,19,0.00,40.00,9,2,19,0.00
2013-7-16,95.0,82.6,64.0,45.0,35.2,19.0,50,22,7,0.00,40.00,8,6,19,0.00
2013-7-17,96.0,75.3,60.0,43.0,30.8,19.0,47,23,7,0.00,40.00,9,3,17,0.00
2013-7-18,96.0,79.9,65.0,52.0,35.7,26.0,51,23,9,0.00,40.00,8,3,16,0.00
2013-7-19,99.0,79.0,66.0,56.0,48.5,41.0,69,37,20,0.00,40.00,8,2,17,0.00
2013-7-20,87.0,73.5,65.0,76.0,61.0,48.0,99,67,43,0.00,40.00,4,1,13,0.32
2013-7-21,80.0,71.9,66.0,69.0,66.4,62.0,100,85,61,0.00,40.00,4,1,10,0.07
2013-7-22,88.0,74.3,63.0,72.0,64.1,59.0,100,74,41,0.00,40.00,9,3,19,0.03
2013-7-23,90.0,74.4,61.0,67.0,60.1,52.0,100,67,28,0.00,40.00,8,3,17,0.00
2013-7-24,93.0,76.0,62.0,61.0,58.1,54.0,92,59,28,0.00,40.00,7,2,16,0.00
2013-7-25,97.0,78.5,64.0,57.0,54.7,52.0,77,48,22,0.00,40.00,8,2,16,0.00
2013-7-26,87.0,75.4,67.0,62.0,57.7,53.0,65,55,39,0.00,40.00,6,1,14,0.00
2013-7-27,93.0,78.9,66.0,62.0,57.5,53.0,83,52,27,0.00,40.00,9,3,18,0.00
2013-7-28,93.0,74.7,62.0,58.0,53.1,46.0,81,51,23,0.00,40.00,9,3,22,0.00
2013-7-29,91.0,72.8,59.0,54.0,48.0,42.0,78,47,19,0.00,40.00,8,3,16,0.00
2013-7-30,90.0,72.1,57.0,55.0,50.8,46.0,79,51,23,0.00,40.00,8,3,16,0.00
2013-7-31,91.0,71.6,56.0,56.0,52.9,50.0,84,56,26,0.00,40.00,8,3,18,0.00
2013-8-1,88.0,70.8,53.0,55.0,47.1,35.0,99,48,15,0.00,40.00,7,3,16,0.00
2013-8-2,89.0,70.5,53.0,52.0,47.1,40.0,85,48,22,0.00,40.00,8,3,18,0.00
2013-8-3,90.0,71.9,53.0,55.0,46.4,30.0,90,46,20,0.00,40.00,8,3,16,0.00
2013-8-4,92.0,74.6,59.0,55.0,44.1,32.0,82,39,14,0.00,40.00,9,3,17,0.00
2013-8-5,93.0,74.2,61.0,48.0,39.1,27.0,55,32,12,0.00,40.00,9,2,17,0.00
2013-8-6,91.0,71.8,57.0,51.0,38.3,24.0,71,35,9,0.00,40.00,9,3,17,0.00
2013-8-7,89.0,72.0,58.0,46.0,37.0,25.0,55,32,10,0.00,40.00,8,3,16,0.00
2013-8-8,90.0,72.1,60.0,47.0,32.8,23.0,59,26,11,0.00,40.00,9,3,17,0.00
2013-8-9,88.0,69.9,55.0,50.0,40.7,32.0,71,37,18,0.00,40.00,9,3,17,0.00
2013-8-10,87.0,70.1,52.0,51.0,45.0,38.0,83,45,20,0.00,40.00,8,3,18,0.00
2013-8-11,91.0,72.2,55.0,50.0,44.3,40.0,67,41,18,0.00,40.00,8,3,18,0.00
2013-8-12,95.0,73.3,57.0,54.0,45.4,38.0,75,42,14,0.00,40.00,8,3,15,0.00
2013-8-13,97.0,76.9,59.0,54.0,46.7,38.0,75,39,15,0.00,40.00,7,2,17,0.00
2013-8-14,102.0,81.5,65.0,58.0,41.1,-99.9,67,31,9,0.00,40.00,9,3,18,0.00
2013-8-15,100.0,76.2,69.0,51.0,28.8,-99.9,52,24,12,0.00,40.00,8,3,19,0.00
2013-8-16,99.0,81.0,68.0,53.0,45.8,-99.9,46,32,17,0.00,40.00,8,3,19,0.00
2013-8-17,100.0,81.8,69.0,52.0,47.2,-99.9,52,33,15,0.00,40.00,8,3,18,0.00
2013-8-18,100.0,83.2,68.0,53.0,48.9,46.0,50,33,18,0.00,40.00,10,3,18,0.00
2013-8-19,95.0,78.2,70.0,61.0,48.1,-99.9,63,41,28,0.00,40.00,7,3,14,0.00
2013-8-20,98.0,79.1,66.0,56.0,48.6,-99.9,66,40,17,0.00,40.00,10,3,18,0.00
2013-8-21,101.0,81.3,68.0,45.0,41.9,36.0,42,27,12,0.00,40.00,8,2,17,0.00
2013-8-22,100.0,83.8,69.0,48.0,40.5,35.0,38,23,12,0.00,40.00,9,3,17,0.00
2013-8-23,98.0,82.5,69.0,44.0,39.5,34.0,35,23,11,0.00,40.00,9,3,18,0.00
2013-8-24,97.0,75.7,66.0,59.0,38.8,-99.9,53,29,14,0.00,40.00,7,1,19,0.00
2013-8-25,82.0,73.1,68.0,57.0,50.5,46.0,52,46,28,0.00,40.00,5,2,13,0.00
2013-8-26,84.0,75.7,70.0,62.0,56.9,51.0,62,52,44,0.00,40.00,6,1,12,0.00
2013-8-27,88.0,74.4,69.0,60.0,56.6,52.0,63,55,36,0.00,40.00,3,1,10,0.00
2013-8-28,99.0,88.8,76.0,56.0,54.7,54.0,48,33,23,0.00,40.00,9,5,19,0.00
2013-8-29,93.0,78.4,73.0,67.0,59.2,52.0,64,52,36,0.00,40.00,11,3,27,0.08
2013-8-30,91.0,78.9,71.0,74.0,65.6,61.0,100,66,41,0.00,40.00,8,2,20,0.08
2013-8-31,91.0,77.0,70.0,72.0,66.9,-99.9,100,75,45,0.00,40.00,6,2,15,0.08
2013-9-1,94.0,77.9,68.0,69.0,62.0,56.0,96,62,28,0.00,40.00,8,3,20,0.00
2013-9-2,98.0,80.4,65.0,64.0,58.6,54.0,90,52,25,0.00,40.00,6,2,17,0.00
2013-9-3,100.0,83.4,71.0,60.0,56.6,53.0,66,43,22,0.00,40.00,8,3,22,0.00
2013-9-4,98.0,83.0,72.0,58.0,54.2,51.0,58,39,23,0.00,40.00,8,2,18,0.00
2013-9-5,101.0,85.4,73.0,57.0,53.7,52.0,52,35,20,0.00,40.00,14,4,27,0.00
2013-9-6,100.0,85.3,77.0,53.0,50.0,47.0,43,31,19,0.00,40.00,6,3,17,0.00
2013-9-7,92.0,76.0,70.0,64.0,52.9,-99.9,76,47,27,0.00,40.00,6,2,18,0.09
2013-9-8,97.0,81.4,71.0,57.0,50.0,39.0,59,36,15,0.00,40.00,8,4,16,0.01
2013-9-9,91.0,76.4,66.0,58.0,51.6,40.0,71,44,17,0.00,40.00,9,3,21,0.00
2013-9-10,90.0,75.2,62.0,54.0,49.7,45.0,75,44,24,0.00,40.00,9,4,16,0.00
2013-9-11,88.0,73.2,60.0,55.0,48.0,40.0,71,44,21,0.00,40.00,7,3,16,0.00
2013-9-12,96.0,76.5,62.0,48.0,40.4,32.0,60,31,11,0.00,40.00,6,2,16,0.00
2013-9-13,95.0,83.0,66.0,50.0,38.1,27.0,45,22,10,0.00,40.00,6,3,17,0.00
2013-9-14,99.0,83.1,70.0,48.0,39.9,-99.9,36,23,15,0.00,40.00,7,2,17,0.00
2013-9-15,99.0,82.4,70.0,52.0,43.4,38.0,41,27,13,0.00,40.00,9,3,20,0.00
2013-9-16,100.0,83.0,70.0,49.0,40.9,36.0,41,25,12,0.00,40.00,8,4,18,0.00
2013-9-17,91.0,76.8,59.0,51.0,38.7,31.0,62,28,14,0.00,40.00,7,4,17,0.00
2013-9-18,63.0,59.0,56.0,52.0,44.4,38.0,73,59,50,0.00,40.00,1,0,10,0.00
2013-9-19,89.0,70.6,57.0,57.0,48.4,36.0,91,51,22,0.00,40.00,7,2,15,0.00
2013-9-20,82.0,66.3,53.0,61.0,55.3,46.0,99,71,42,0.00,40.00,6,3,14,0.00
2013-9-21,82.0,63.1,50.0,60.0,50.0,-99.9,99,70,27,0.00,40.00,10,3,18,0.00
2013-9-22,78.0,62.9,53.0,57.0,47.8,42.0,99,63,29,0.00,40.00,8,3,16,0.00
2013-9-23,93.0,73.6,54.0,44.0,31.7,24.0,70,27,9,0.00,40.00,7,4,17,0.00
2013-9-24,91.0,73.4,60.0,41.0,33.3,27.0,36,24,11,0.00,40.00,9,3,19,0.00
2013-9-25,82.0,66.3,54.0,52.0,37.7,27.0,86,37,22,0.00,40.00,4,2,15,0.00
2013-9-26,71.0,58.3,51.0,50.0,44.1,32.0,85,62,24,0.00,40.00,10,3,19,0.00
2013-9-27,80.0,58.7,47.0,37.0,24.0,12.0,64,32,9,0.00,40.00,5,2,19,0.00
2013-9-28,86.0,66.0,59.0,24.0,12.1,-99.9,19,13,6,0.00,40.00,6,4,15,0.00
2013-9-29,88.0,71.9,60.0,31.0,20.0,13.0,24,15,7,0.00,40.00,6,4,14,0.00
2013-9-30,90.0,73.1,59.0,43.0,23.9,17.0,39,17,9,0.00,40.00,6,2,19,0.00
2013-10-1,84.0,70.9,59.0,47.0,42.1,34.0,61,39,17,0.00,40.00,7,2,14,0.00
2013-10-2,81.0,66.6,54.0,54.0,44.8,33.0,96,48,28,0.00,40.00,6,2,15,0.00
2013-10-3,74.0,61.6,51.0,57.0,50.1,40.0,99,69,36,0.00,40.00,9,3,14,0.00
2013-10-4,77.0,57.0,50.0,57.0,31.5,5.0,99,50,6,0.00,40.00,6,1,18,0.00
2013-10-5,77.0,61.3,54.0,17.0,10.1,6.0,19,13,8,0.00,40.00,6,2,13,0.00
2013-10-6,90.0,68.3,59.0,10.0,6.4,-1.0,12,9,4,0.00,40.00,6,4,15,0.00
2013-10-7,85.0,73.1,60.0,30.0,19.2,6.0,29,15,6,0.00,40.00,9,4,18,0.00
2013-10-8,78.0,64.3,52.0,54.0,34.1,18.0,99,40,11,0.00,40.00,7,3,15,0.00
2013-10-9,56.0,50.2,43.0,52.0,45.9,41.0,99,86,58,0.00,40.00,6,3,19,0.57
2013-10-10,65.0,50.1,39.0,43.0,39.8,35.0,99,70,41,0.00,40.00,7,2,13,0.33
2013-10-11,75.0,58.8,45.0,44.0,38.6,34.0,95,52,24,0.00,40.00,6,2,12,0.00
2013-10-12,77.0,62.4,53.0,45.0,36.4,-99.9,62,41,24,0.00,40.00,7,4,16,0.00
2013-10-13,71.0,57.8,45.0,50.0,41.8,31.0,99,58,34,0.00,40.00,6,2,14,0.00
2013-10-14,78.0,63.4,46.0,43.0,30.3,25.0,88,36,14,0.00,40.00,7,3,15,0.00
2013-10-15,78.0,61.1,55.0,28.0,22.9,18.0,30,23,12,0.00,40.00,8,5,16,0.00
2013-10-16,81.0,62.9,54.0,23.0,18.8,13.0,26,19,8,0.00,40.00,7,4,16,0.00
2013-10-17,81.0,65.9,56.0,34.0,20.7,15.0,33,19,10,0.00,40.00,7,4,14,0.00
2013-10-18,86.0,66.0,53.0,28.0,22.4,15.0,37,21,9,0.00,40.00,7,3,15,0.00
2013-10-19,86.0,67.0,63.0,35.0,14.1,-99.9,27,14,6,0.00,40.00,8,5,16,0.00
2013-10-20,83.0,70.5,60.0,30.0,22.9,11.0,31,18,10,0.00,40.00,5,3,14,0.00
2013-10-21,84.0,68.8,54.0,35.0,23.1,13.0,29,19,9,0.00,40.00,6,2,14,0.00
2013-10-22,88.0,71.3,60.0,41.0,24.2,14.0,38,19,7,0.00,40.00,7,3,16,0.00
2013-10-23,73.0,64.2,50.0,52.0,40.2,18.0,99,49,15,0.00,40.00,6,2,14,0.00
2013-10-24,70.0,56.1,48.0,53.0,49.8,43.0,99,82,53,0.00,40.00,4,1,11,0.00
2013-10-25,80.0,64.9,49.0,48.0,37.8,22.0,93,43,17,0.00,40.00,6,2,12,0.00
2013-10-26,88.0,71.3,65.0,40.0,22.3,-99.9,30,17,10,0.00,40.00,6,4,15,0.00
2013-10-27,83.0,68.9,54.0,55.0,28.8,20.0,99,26,11,0.00,40.00,7,4,14,0.00
2013-10-28,57.0,50.1,45.0,54.0,47.1,-99.9,99,93,64,0.00,40.00,5,2,13,0.08
2013-10-29,59.0,48.6,42.0,48.0,40.9,35.0,99,76,54,0.00,40.00,7,2,12,0.06
2013-10-30,70.0,53.6,41.0,48.0,39.1,30.0,99,65,28,0.00,40.00,6,2,15,0.00
2013-10-31,77.0,59.2,48.0,30.0,24.2,19.0,45,28,13,0.00,40.00,6,3,15,0.00
2013-11-1,81.0,61.8,53.0,28.0,22.5,20.0,27,23,11,0.00,40.00,8,4,15,0.00
2013-11-2,80.0,63.5,52.0,32.0,21.6,-99.9,42,22,9,0.00,40.00,8,5,17,0.00
2013-11-3,68.0,55.4,46.0,46.0,35.0,22.0,89,48,29,0.00,40.00,5,2,11,0.00
2013-11-4,56.0,50.0,45.0,48.0,43.9,36.0,99,80,65,0.00,40.00,6,2,11,0.00
2013-11-5,71.0,54.4,41.0,45.0,20.5,5.0,99,36,9,0.00,40.00,6,3,13,0.00
2013-11-6,77.0,58.0,48.0,11.0,6.4,0.0,19,13,6,0.00,40.00,6,3,13,0.00
2013-11-7,79.0,64.8,57.0,16.0,12.5,3.0,19,14,6,0.00,40.00,7,3,13,0.00
2013-11-8,80.0,63.2,59.0,19.0,12.1,9.0,17,14,8,0.00,40.00,5,3,13,0.00
2013-11-9,81.0,63.9,50.0,21.0,12.8,-99.9,24,15,7,0.00,40.00,5,2,11,0.00
2013-11-10,79.0,66.2,55.0,18.0,14.9,2.0,20,14,9,0.00,40.00,7,2,13,0.00
2013-11-11,82.0,65.0,57.0,26.0,18.3,13.0,24,17,10,0.00,40.00,7,4,15,0.00
2013-11-12,80.0,69.9,61.0,28.0,22.8,12.0,21,17,12,0.00,40.00,6,3,13,0.00
2013-11-13,85.0,71.0,66.0,27.0,22.4,17.0,22,16,9,0.00,40.00,7,4,14,0.00
2013-11-14,87.0,68.4,61.0,26.0,20.3,15.0,23,17,8,0.00,40.00,7,3,14,0.00
2013-11-15,63.0,55.5,50.0,50.0,40.3,22.0,98,61,21,0.00,40.00,5,1,10,0.00
2013-11-16,54.0,49.4,46.0,51.0,47.6,-99.9,99,96,86,0.00,40.00,3,0,8,0.03
2013-11-17,66.0,52.1,41.0,48.0,44.9,41.0,99,79,46,0.00,40.00,3,1,10,0.01
2013-11-18,66.0,53.0,46.0,50.0,41.8,35.0,99,67,46,0.00,40.00,6,2,11,0.00
2013-11-19,54.0,50.6,48.0,51.0,47.7,44.0,99,90,77,0.00,40.00,5,1,10,0.00
2013-11-20,57.0,51.2,48.0,52.0,49.0,46.0,100,92,69,0.00,40.00,2,0,7,0.00
2013-11-21,55.0,50.4,47.0,55.0,50.4,46.0,100,99,96,0.00,40.00,5,2,14,1.01
2013-11-22,52.0,44.7,40.0,46.0,42.0,37.0,99,91,59,0.00,40.00,8,1,14,0.31
2013-11-23,55.0,45.0,38.0,41.0,36.8,-99.9,99,77,48,0.00,40.00,4,1,10,0.01
2013-11-24,62.0,48.3,41.0,37.0,34.9,33.0,80,62,39,0.00,40.00,5,2,14,0.00
2013-11-25,71.0,52.1,43.0,36.0,32.9,29.0,71,50,23,0.00,40.00,6,3,14,0.00
2013-11-26,71.0,57.7,51.0,33.0,29.1,26.0,44,35,20,0.00,40.00,7,4,15,0.00
2013-11-27,69.0,56.5,50.0,34.0,29.0,26.0,45,35,23,0.00,40.00,5,2,13,0.00
2013-11-28,65.0,53.1,46.0,33.0,29.0,24.0,51,40,30,0.00,40.00,8,3,15,0.00
2013-11-29,64.0,52.4,48.0,49.0,37.8,26.0,99,60,28,0.00,40.00,7,2,14,0.00
2013-11-30,71.0,56.4,50.0,45.0,37.0,-99.9,67,51,31,0.00,40.00,7,3,13,0.00
2013-12-1,74.0,57.6,52.0,33.0,28.1,19.0,41,33,19,0.00,40.00,7,4,17,0.00
2013-12-2,73.0,60.3,52.0,27.0,20.9,15.0,32,22,16,0.00,40.00,6,3,16,0.00
2013-12-3,66.0,54.2,48.0,49.0,34.2,20.0,99,53,22,0.00,40.00,5,3,12,0.00
2013-12-4,56.0,44.7,37.0,48.0,33.8,18.0,99,70,25,0.00,40.00,7,1,17,0.00
2013-12-5,53.0,41.4,35.0,37.0,29.8,25.0,86,65,35,0.00,40.00,5,1,12,0.00
2013-12-6,51.0,41.9,34.0,35.0,30.2,23.0,84,64,43,0.00,40.00,6,1,11,0.00
2013-12-7,43.0,39.7,38.0,43.0,35.9,-99.9,99,89,66,0.00,40.00,4,1,12,0.21
2013-12-8,46.0,40.2,34.0,38.0,32.6,25.0,99,76,54,0.00,40.00,5,1,11,0.01
2013-12-9,52.0,38.1,30.0,26.0,16.1,4.0,84,46,16,0.00,40.00,5,3,11,0.00
2013-12-10,62.0,44.2,32.0,15.0,10.4,3.0,41,27,10,0.00,40.00,9,2,15,0.00
2013-12-11,66.0,49.4,42.0,18.0,9.9,3.0,28,20,10,0.00,40.00,5,2,14,0.00
2013-12-12,65.0,51.4,43.0,26.0,17.1,12.0,45,27,16,0.00,40.00,6,2,13,0.00
2013-12-13,64.0,49.8,40.0,28.0,23.7,19.0,50,37,26,0.00,40.00,5,2,13,0.00
2013-12-14,67.0,52.5,44.0,20.0,14.4,-99.9,38,23,14,0.00,40.00,6,3,14,0.00
2013-12-15,77.0,56.8,47.0,22.0,14.9,9.0,27,19,9,0.00,40.00,6,2,14,0.00
2013-12-16,83.0,65.9,56.0,29.0,20.7,16.0,24,18,10,0.00,40.00,5,2,12,0.00
2013-12-17,80.0,68.3,62.0,29.0,22.0,16.0,24,18,10,0.00,40.00,6,2,13,0.00
2013-12-18,74.0,60.4,42.0,33.0,24.1,19.0,61,27,16,0.00,40.00,6,2,15,0.00
2013-12-19,47.0,43.5,36.0,45.0,42.3,36.0,99,95,74,0.00,40.00,3,1,12,0.11
2013-12-20,58.0,44.1,36.0,39.0,35.5,30.0,99,75,35,0.00,40.00,4,1,12,0.01
2013-12-21,56.0,43.5,37.0,43.0,36.8,-99.9,99,80,53,0.00,40.00,5,1,12,0.00
2013-12-22,66.0,52.2,40.0,36.0,30.2,25.0,80,45,27,0.00,40.00,7,4,15,0.00
2013-12-23,69.0,55.9,48.0,31.0,28.3,23.0,45,35,23,0.00,40.00,8,4,17,0.00
2013-12-24,75.0,57.1,50.0,29.0,24.1,20.0,40,29,18,0.00,40.00,6,3,12,0.00
2013-12-25,73.0,56.5,48.0,23.0,18.0,9.0,34,23,14,0.00,40.00,5,2,12,0.00
2013-12-26,72.0,56.5,49.0,13.0,7.7,3.0,19,14,8,0.00,40.00,7,3,14,0.00
2013-12-27,77.0,58.8,53.0,13.0,5.2,-3.0,17,12,6,0.00,40.00,7,4,13,0.00
2013-12-28,73.0,61.5,53.0,22.0,10.6,-99.9,19,14,8,0.00,40.00,10,3,21,0.00
2013-12-29,70.0,57.0,49.0,9.0,6.2,-3.0,16,13,7,0.00,40.00,8,4,30,0.00
2013-12-30,73.0,57.3,49.0,10.0,2.0,-7.0,17,11,6,0.00,40.00,7,3,14,0.00
2013-12-31,73.0,57.0,49.0,12.0,8.2,2.0,19,15,8,0.00,40.00,6,2,14,0.00
2014-1-1,75.0,58.7,52.0,18.0,13.4,8.0,21,17,9,0.00,40.00,6,3,12,0.00
2014-1-2,77.0,62.3,54.0,23.0,18.8,15.0,28,19,12,0.00,40.00,6,4,12,0.00